Time;durP1;ratioP1;P1;durP2;ratioP2;P2;SDS_P1;SDS_P2;PMS_P1;PMS_P2;Temp;Humidity;BMP_temperature;BMP_pressure;BME280_temperature;BME280_humidity;BME280_pressure;Samples;Min_cycle;Max_cycle;Signal;HPM_P1;HPM_P2
2023/10/14 00:00:37;;;;;;;;;;;;;;;13.62;65.55;99811.97;5019849;28;19924;-94
2023/10/14 00:03:18;;;;;;;;;;;;;;;13.63;65.53;99805.44;5020278;28;19951;-93
2023/10/14 00:05:43;;;;;;;;;;;;;;;13.64;65.76;99815.19;5036583;28;19913;-93
2023/10/14 00:08:12;;;;;;;;;;;;;;;13.63;65.66;99802.75;5019481;28;19928;-93
2023/10/14 00:10:39;;;;;;;;;;;;;;;13.68;65.65;99796.53;5021680;28;19924;-93
2023/10/14 00:13:04;;;;;;;;;;;;;;;13.57;66.15;99798.44;5020700;28;19913;-93
2023/10/14 00:15:34;;;;;;;;;;;;;;;13.55;65.84;99797.94;5036955;28;19917;-93
2023/10/14 00:18:00;;;;;;;;;;;;;;;13.51;66.15;99794.16;5020145;28;20008;-93
2023/10/14 00:20:25;;;;;;;;;;;;;;;13.57;65.70;99786.81;5019476;28;20393;-93
2023/10/14 00:22:50;;;;;;;;;;;;;;;13.62;65.75;99787.59;5035569;28;20371;-94
2023/10/14 00:25:19;;;;;;;;;;;;;;;13.68;65.21;99786.50;5035503;28;20393;-93
2023/10/14 00:27:45;;;;;;;;;;;;;;;13.72;65.24;99784.84;5019551;28;19913;-95
2023/10/14 00:30:12;;;;;;;;;;;;;;;13.73;65.05;99772.13;5019106;28;19970;-93
2023/10/14 00:32:38;;;;;;;;;;;;;;;13.77;64.82;99775.88;5018500;28;19917;-92
2023/10/14 00:35:07;;;;;;;;;;;;;;;13.79;64.58;99771.00;5018579;28;19920;-94
2023/10/14 00:37:35;;;;;;;;;;;;;;;13.79;64.65;99771.00;5019859;28;19913;-95
2023/10/14 00:40:45;;;;;;;;;;;;;;;13.84;64.46;99765.56;5020432;28;19967;-93
2023/10/14 00:42:51;;;;;;;;;;;;;;;13.80;64.52;99760.97;5027431;28;20389;-93
2023/10/14 00:45:20;;;;;;;;;;;;;;;13.80;64.47;99759.09;5019200;28;19920;-93
2023/10/14 00:47:49;;;;;;;;;;;;;;;13.65;65.01;99761.88;5020163;28;19917;-92
2023/10/14 00:50:50;;;;;;;;;;;;;;;13.57;65.33;99757.06;5020342;28;20374;-93
2023/10/14 00:53:06;;;;;;;;;;;;;;;13.57;65.14;99754.34;5034014;28;19971;-94
2023/10/14 00:55:54;;;;;;;;;;;;;;;13.62;64.93;99754.34;5019509;28;20406;-93
2023/10/14 00:58:28;;;;;;;;;;;;;;;13.66;64.67;99744.56;5024758;28;19920;-94
2023/10/14 01:01:00;;;;;;;;;;;;;;;13.57;65.03;99746.22;5024453;28;19913;-94
2023/10/14 01:03:32;;;;;;;;;;;;;;;13.52;65.30;99744.38;5024320;28;20370;-93
2023/10/14 01:06:22;;;;;;;;;;;;;;;13.52;65.18;99739.75;5022212;28;19925;-93
2023/10/14 01:08:48;;;;;;;;;;;;;;;13.50;65.29;99741.13;5039395;28;20403;-94
2023/10/14 01:11:16;;;;;;;;;;;;;;;13.44;65.43;99739.53;5023180;28;19960;-94
2023/10/14 01:13:45;;;;;;;;;;;;;;;13.46;65.52;99743.59;5022740;28;19913;-95
2023/10/14 01:16:10;;;;;;;;;;;;;;;13.43;65.40;99733.34;5023183;28;19967;-94
2023/10/14 01:18:38;;;;;;;;;;;;;;;13.35;65.71;99733.91;5022349;28;20341;-92
2023/10/14 01:21:03;;;;;;;;;;;;;;;13.37;65.48;99726.31;5023224;28;19995;-95
2023/10/14 01:23:28;;;;;;;;;;;;;;;13.29;66.12;99732.31;5023184;28;19913;-94
2023/10/14 01:25:54;;;;;;;;;;;;;;;13.23;66.01;99733.41;5022701;28;19936;-95
2023/10/14 01:28:29;;;;;;;;;;;;;;;13.15;66.37;99734.75;5006123;28;20390;-95
2023/10/14 01:33:55;;;;;;;;;;;;;;;13.09;66.46;99725.88;5040882;28;20303;-94
2023/10/14 01:36:26;;;;;;;;;;;;;;;12.95;66.84;99732.97;5024612;28;19917;-93
2023/10/14 01:38:58;;;;;;;;;;;;;;;12.79;67.25;99731.38;5039249;28;19917;-93
2023/10/14 01:41:24;;;;;;;;;;;;;;;12.68;67.66;99726.00;5023746;28;19913;-95
2023/10/14 01:43:50;;;;;;;;;;;;;;;12.68;67.50;99727.91;5022505;28;19913;-94
2023/10/14 01:46:18;;;;;;;;;;;;;;;12.59;67.66;99727.63;5022746;28;19936;-95
2023/10/14 01:48:44;;;;;;;;;;;;;;;12.51;68.21;99718.22;5023576;28;19953;-94
2023/10/14 01:51:09;;;;;;;;;;;;;;;12.53;67.97;99716.03;5022250;28;19952;-93
2023/10/14 01:53:37;;;;;;;;;;;;;;;12.48;68.45;99715.22;5037923;28;19917;-93
2023/10/14 01:56:02;;;;;;;;;;;;;;;12.53;68.28;99715.22;5020957;28;20007;-93
2023/10/14 02:00:58;;;;;;;;;;;;;;;12.57;67.91;99710.06;5021480;28;20398;-94
2023/10/14 02:03:23;;;;;;;;;;;;;;;12.52;68.20;99711.69;5037382;28;20275;-94
2023/10/14 02:05:51;;;;;;;;;;;;;;;12.50;68.39;99719.28;5022474;28;19928;-94
2023/10/14 02:08:21;;;;;;;;;;;;;;;12.43;68.72;99717.91;5022259;28;19913;-93
2023/10/14 02:10:54;;;;;;;;;;;;;;;12.42;68.45;99721.72;5039093;28;19913;-94
2023/10/14 02:13:22;;;;;;;;;;;;;;;12.41;68.83;99718.22;5038512;28;19919;-93
2023/10/14 02:15:47;;;;;;;;;;;;;;;12.37;68.86;99719.00;5039108;28;19960;-92
2023/10/14 02:18:20;;;;;;;;;;;;;;;12.42;68.52;99719.03;5037859;28;19913;-94
2023/10/14 02:20:58;;;;;;;;;;;;;;;12.38;68.75;99717.94;5021943;28;20017;-93
2023/10/14 02:23:26;;;;;;;;;;;;;;;12.33;68.98;99716.88;5038656;28;19969;-93
2023/10/14 02:25:56;;;;;;;;;;;;;;;12.26;69.33;99724.41;5021498;28;19920;-93
2023/10/14 02:28:22;;;;;;;;;;;;;;;12.25;69.30;99722.00;5038213;28;19913;-93
2023/10/14 02:30:51;;;;;;;;;;;;;;;12.15;69.44;99714.72;5021214;28;19919;-92
2023/10/14 02:33:19;;;;;;;;;;;;;;;12.05;69.43;99720.91;5021769;28;19913;-91
2023/10/14 02:35:45;;;;;;;;;;;;;;;12.08;69.49;99712.28;5037865;28;20008;-93
2023/10/14 02:38:10;;;;;;;;;;;;;;;12.05;69.39;99714.72;5037469;28;19948;-93
2023/10/14 02:40:37;;;;;;;;;;;;;;;11.98;69.63;99717.69;5020804;28;19919;-93
2023/10/14 02:43:04;;;;;;;;;;;;;;;11.99;69.43;99719.28;5021509;28;20004;-93
2023/10/14 02:45:39;;;;;;;;;;;;;;;11.97;69.32;99716.03;5037895;28;19917;-93
2023/10/14 02:48:04;;;;;;;;;;;;;;;11.86;69.49;99711.69;5022198;28;19913;-93
2023/10/14 02:50:31;;;;;;;;;;;;;;;11.78;69.91;99714.94;5038008;28;20048;-93
2023/10/14 02:53:06;;;;;;;;;;;;;;;11.79;70.00;99713.88;5021019;28;19917;-93
2023/10/14 02:55:50;;;;;;;;;;;;;;;11.71;70.45;99704.41;5036723;28;19940;-93
2023/10/14 02:58:20;;;;;;;;;;;;;;;11.66;70.62;99705.22;5038097;28;19914;-92
2023/10/14 03:00:45;;;;;;;;;;;;;;;11.65;70.48;99702.78;5020586;28;19917;-93
2023/10/14 03:03:13;;;;;;;;;;;;;;;11.62;70.63;99706.00;5037585;28;19920;-93
2023/10/14 03:05:53;;;;;;;;;;;;;;;11.58;71.05;99715.69;5037565;28;19921;-94
2023/10/14 03:08:19;;;;;;;;;;;;;;;11.61;70.73;99710.59;5022370;28;19944;-94
2023/10/14 03:10:59;;;;;;;;;;;;;;;11.68;70.54;99707.63;5019512;28;19913;-93
2023/10/14 03:13:25;;;;;;;;;;;;;;;11.67;70.61;99703.31;5036015;28;19913;-93
2023/10/14 03:15:53;;;;;;;;;;;;;;;11.66;70.75;99707.06;5019835;28;19947;-94
2023/10/14 03:18:18;;;;;;;;;;;;;;;11.69;70.56;99703.88;5035941;28;19913;-94
2023/10/14 03:23:23;;;;;;;;;;;;;;;11.82;70.13;99703.31;5036994;28;19913;-93
2023/10/14 03:26:20;;;;;;;;;;;;;;;11.90;70.02;99708.22;5019730;28;20011;-94
2023/10/14 03:28:46;;;;;;;;;;;;;;;11.98;69.55;99704.19;5035470;28;20374;-93
2023/10/14 03:31:16;;;;;;;;;;;;;;;12.03;69.51;99692.56;5019902;28;19920;-94
2023/10/14 03:33:45;;;;;;;;;;;;;;;12.06;69.21;99697.44;5035776;28;19913;-92
2023/10/14 03:36:20;;;;;;;;;;;;;;;12.09;69.04;99696.91;5036345;28;19917;-93
2023/10/14 03:38:55;;;;;;;;;;;;;;;12.06;68.89;99692.84;5021065;28;19917;-93
2023/10/14 03:41:21;;;;;;;;;;;;;;;12.06;68.68;99697.44;5020738;28;19913;-94
2023/10/14 03:46:32;;;;;;;;;;;;;;;12.09;68.51;99689.59;5036431;28;19913;-93
2023/10/14 03:48:58;;;;;;;;;;;;;;;12.14;68.30;99691.50;5020722;28;19917;-92
2023/10/14 03:51:29;;;;;;;;;;;;;;;12.16;68.13;99694.75;5019179;28;19913;-94
2023/10/14 03:53:57;;;;;;;;;;;;;;;12.18;68.31;99686.34;5036747;28;19935;-93
2023/10/14 03:56:27;;;;;;;;;;;;;;;12.18;68.00;99673.69;5019871;28;19924;-94
2023/10/14 03:58:57;;;;;;;;;;;;;;;12.18;67.94;99679.09;5019387;28;20307;-94
2023/10/14 04:01:23;;;;;;;;;;;;;;;12.18;67.65;99681.78;5018217;28;20303;-93
2023/10/14 04:03:54;;;;;;;;;;;;;;;12.16;67.43;99675.84;5018886;28;19920;-93
2023/10/14 04:06:19;;;;;;;;;;;;;;;12.06;68.27;99670.47;5019104;28;19921;-93
2023/10/14 04:08:49;;;;;;;;;;;;;;;12.05;68.20;99674.22;5018805;28;19924;-93
2023/10/14 04:11:35;;;;;;;;;;;;;;;12.11;67.98;99670.44;5019778;28;20351;-93
2023/10/14 04:14:14;;;;;;;;;;;;;;;12.10;68.10;99671.53;5020766;28;19920;-95
2023/10/14 04:17:00;;;;;;;;;;;;;;;12.03;68.35;99674.50;5021012;28;20008;-94
2023/10/14 04:19:43;;;;;;;;;;;;;;;11.92;68.80;99672.88;5022456;28;19921;-92
2023/10/14 04:22:27;;;;;;;;;;;;;;;11.81;68.98;99672.03;5035980;28;19925;-93
2023/10/14 04:30:22;;;;;;;;;;;;;;;11.60;69.14;99675.78;5036217;28;19917;-93
2023/10/14 04:32:48;;;;;;;;;;;;;;;11.58;68.99;99669.84;5021862;28;19917;-93
2023/10/14 04:35:14;;;;;;;;;;;;;;;11.55;69.13;99670.41;5022068;28;19990;-94
2023/10/14 04:37:51;;;;;;;;;;;;;;;11.50;69.52;99668.50;5021813;28;19985;-94
2023/10/14 04:40:35;;;;;;;;;;;;;;;11.60;69.23;99673.09;5024024;28;19917;-93
2023/10/14 04:45:52;;;;;;;;;;;;;;;11.51;69.57;99673.59;5040392;28;19924;-92
2023/10/14 04:48:19;;;;;;;;;;;;;;;11.50;69.71;99663.91;5024551;28;19912;-92
2023/10/14 04:50:56;;;;;;;;;;;;;;;11.54;69.77;99674.97;5022767;28;19913;-93
2023/10/14 04:53:26;;;;;;;;;;;;;;;11.48;69.93;99670.66;5024091;28;20437;-92
2023/10/14 04:55:52;;;;;;;;;;;;;;;11.55;69.70;99671.19;5023116;28;20018;-93
2023/10/14 04:58:23;;;;;;;;;;;;;;;11.56;69.53;99672.00;5022271;28;19917;-93
2023/10/14 05:00:49;;;;;;;;;;;;;;;11.54;69.71;99674.97;5024587;28;19920;-92
2023/10/14 05:03:23;;;;;;;;;;;;;;;11.56;69.76;99667.44;5039035;28;19913;-93
2023/10/14 05:05:51;;;;;;;;;;;;;;;11.52;69.66;99672.53;5022288;28;20011;-94
2023/10/14 05:08:21;;;;;;;;;;;;;;;11.47;69.84;99672.53;5038194;28;20353;-93
2023/10/14 05:10:50;;;;;;;;;;;;;;;11.47;69.88;99672.53;5024003;28;19913;-94
2023/10/14 05:13:15;;;;;;;;;;;;;;;11.43;70.17;99671.44;5022430;28;19956;-94
2023/10/14 05:15:43;;;;;;;;;;;;;;;11.52;69.76;99669.06;5022417;28;19924;-95
2023/10/14 05:18:30;;;;;;;;;;;;;;;11.46;70.08;99668.22;5022395;28;20011;-92
2023/10/14 05:21:02;;;;;;;;;;;;;;;11.55;69.80;99668.50;5022515;28;19897;-96
2023/10/14 05:23:31;;;;;;;;;;;;;;;11.55;69.64;99678.47;5022224;28;19943;-95
2023/10/14 05:25:59;;;;;;;;;;;;;;;11.53;69.75;99674.16;5022068;28;19917;-94
2023/10/14 05:28:31;;;;;;;;;;;;;;;11.59;69.68;99672.28;5023397;28;20295;-95
2023/10/14 05:30:57;;;;;;;;;;;;;;;11.63;70.11;99675.25;5023714;28;20002;-96
2023/10/14 05:33:27;;;;;;;;;;;;;;;11.69;69.72;99677.69;5039563;28;19913;-95
2023/10/14 05:36:00;;;;;;;;;;;;;;;11.75;69.69;99681.22;5039728;28;19916;-95
2023/10/14 05:38:26;;;;;;;;;;;;;;;11.77;69.76;99681.75;5022969;28;19920;-94
2023/10/14 05:40:55;;;;;;;;;;;;;;;11.81;69.76;99680.13;5022245;28;19913;-96
2023/10/14 05:43:27;;;;;;;;;;;;;;;11.85;69.61;99675.81;5038452;28;19913;-95
2023/10/14 05:45:52;;;;;;;;;;;;;;;12.02;69.08;99674.78;5022478;28;19955;-95
2023/10/14 05:48:18;;;;;;;;;;;;;;;12.07;68.73;99680.16;5022038;28;19917;-94
2023/10/14 05:50:43;;;;;;;;;;;;;;;12.15;68.69;99684.22;5021974;28;19913;-94
2023/10/14 05:53:08;;;;;;;;;;;;;;;12.20;68.40;99682.34;5020983;28;19928;-91
2023/10/14 05:55:34;;;;;;;;;;;;;;;12.28;68.30;99684.44;5020653;28;20442;-93
2023/10/14 05:58:02;;;;;;;;;;;;;;;12.33;68.25;99689.06;5022217;28;19913;-93
2023/10/14 06:00:33;;;;;;;;;;;;;;;12.47;68.05;99681.19;5022692;28;19917;-95
2023/10/14 06:02:59;;;;;;;;;;;;;;;12.63;67.71;99684.66;5024047;28;19920;-95
2023/10/14 06:05:24;;;;;;;;;;;;;;;12.69;67.55;99687.06;5020939;28;19921;-93
2023/10/14 06:07:50;;;;;;;;;;;;;;;12.81;67.26;99678.69;5021242;28;20398;-92
2023/10/14 06:10:20;;;;;;;;;;;;;;;12.91;67.18;99689.44;5023190;28;19948;-92
2023/10/14 06:12:47;;;;;;;;;;;;;;;13.02;66.97;99678.59;5021829;28;19943;-94
2023/10/14 06:15:16;;;;;;;;;;;;;;;13.04;66.82;99679.94;5023947;28;19917;-93
2023/10/14 06:17:41;;;;;;;;;;;;;;;13.09;66.72;99679.09;5022226;28;19921;-92
2023/10/14 06:20:07;;;;;;;;;;;;;;;13.26;65.91;99676.88;5023206;28;19919;-94
2023/10/14 06:22:33;;;;;;;;;;;;;;;13.40;65.44;99670.84;5021679;28;20383;-96
2023/10/14 06:25:01;;;;;;;;;;;;;;;13.49;65.18;99672.69;5022324;28;19913;-95
2023/10/14 06:36:03;;;;;;;;;;;;;;;13.99;63.49;99669.91;5055495;28;19909;-95
2023/10/14 06:38:27;;;;;;;;;;;;;;;14.19;62.67;99671.59;5039884;28;19921;-95
2023/10/14 06:40:53;;;;;;;;;;;;;;;14.30;62.19;99664.22;5016245;28;20007;-94
2023/10/14 06:43:22;;;;;;;;;;;;;;;14.41;61.61;99667.63;5040731;28;20004;-96
2023/10/14 06:45:51;;;;;;;;;;;;;;;14.55;61.78;99665.84;5023964;28;19917;-94
2023/10/14 06:48:19;;;;;;;;;;;;;;;14.69;61.55;99669.53;5018987;28;19913;-93
2023/10/14 06:50:47;;;;;;;;;;;;;;;14.78;61.36;99668.88;5022275;28;19917;-93
2023/10/14 06:53:15;;;;;;;;;;;;;;;14.89;61.19;99665.75;5035755;28;19917;-94
2023/10/14 06:55:50;;;;;;;;;;;;;;;15.04;60.93;99663.94;5024140;28;19921;-93
2023/10/14 06:58:29;;;;;;;;;;;;;;;;;;;;;
2023/10/14 07:01:17;;;;;;;;;;;;;;;15.35;59.41;99672.47;5031166;28;19984;-94
2023/10/14 07:03:48;;;;;;;;;;;;;;;15.49;58.97;99662.50;4981991;28;19920;-95
2023/10/14 07:06:21;;;;;;;;;;;;;;;15.56;57.88;99656.72;4967159;28;19913;-95
2023/10/14 07:08:50;;;;;;;;;;;;;;;15.71;57.45;99663.84;4965496;28;19914;-95
2023/10/14 07:11:16;;;;;;;;;;;;;;;15.82;57.50;99659.06;4980954;28;19913;-95
2023/10/14 07:13:47;;;;;;;;;;;;;;;15.90;56.67;99656.50;4966361;28;19920;-93
2023/10/14 07:16:12;;;;;;;;;;;;;;;16.00;55.70;99652.81;4979818;28;19973;-94
2023/10/14 07:18:40;;;;;;;;;;;;;;;16.05;54.30;99650.00;4964208;28;19930;-96
2023/10/14 07:21:12;;;;;;;;;;;;;;;16.23;53.85;99642.91;4963710;28;19914;-94
2023/10/14 07:23:38;;;;;;;;;;;;;;;16.40;54.00;99646.94;4980376;28;20348;-96
2023/10/14 07:26:16;;;;;;;;;;;;;;;16.48;53.96;99640.81;4963427;28;19941;-94
2023/10/14 07:28:51;;;;;;;;;;;;;;;16.65;54.46;99637.50;4969379;28;19913;-95
2023/10/14 07:31:16;;;;;;;;;;;;;;;16.77;54.88;99643.22;4964005;28;20284;-94
2023/10/14 07:33:44;;;;;;;;;;;;;;;16.99;53.76;99630.84;4967223;28;19922;-95
2023/10/14 07:36:13;;;;;;;;;;;;;;;17.13;53.67;99629.69;5015211;28;19921;-93
2023/10/14 07:38:44;;;;;;;;;;;;;;;17.25;51.50;99631.09;5039728;28;19921;-92
2023/10/14 07:41:19;;;;;;;;;;;;;;;17.36;51.20;99635.19;5038910;28;19913;-94
2023/10/14 07:43:45;;;;;;;;;;;;;;;17.46;50.88;99629.50;5038839;28;19916;-93
2023/10/14 07:46:13;;;;;;;;;;;;;;;17.57;51.06;99628.16;5021857;28;19919;-95
2023/10/14 07:48:53;;;;;;;;;;;;;;;17.72;51.07;99623.44;5022715;28;20020;-96
2023/10/14 07:51:36;;;;;;;;;;;;;;;17.89;50.55;99628.25;5023380;28;19971;-95
2023/10/14 07:54:02;;;;;;;;;;;;;;;18.03;50.18;99625.44;5022863;28;19967;-94
2023/10/14 07:56:28;;;;;;;;;;;;;;;18.20;49.48;99620.09;5019047;28;20337;-96
2023/10/14 07:58:55;;;;;;;;;;;;;;;18.34;49.22;99618.09;5018157;28;20024;-93
2023/10/14 08:01:25;;;;;;;;;;;;;;;18.47;49.50;99615.53;5019804;28;19913;-94
2023/10/14 08:04:17;;;;;;;;;;;;;;;18.63;49.06;99602.28;5022997;28;19920;-95
2023/10/14 08:07:15;;;;;;;;;;;;;;;18.73;48.86;99608.25;4985763;28;19925;-96
2023/10/14 08:16:30;;;;;;;;;;;;;;;;;;;;;
2023/10/14 08:19:20;;;;;;;;;;;;;;;;;;;;;
2023/10/14 08:21:50;;;;;;;;;;;;;;;19.39;48.23;99588.28;5012157;28;20315;-95
2023/10/14 08:24:20;;;;;;;;;;;;;;;19.52;47.63;99570.13;5023613;28;19924;-95
2023/10/14 08:27:13;;;;;;;;;;;;;;;19.63;47.26;99576.06;5008619;28;19952;-96
2023/10/14 08:30:10;;;;;;;;;;;;;;;19.72;47.17;99568.69;5040760;28;20398;-96
2023/10/14 08:32:32;;;;;;;;;;;;;;;19.87;46.48;99565.44;5037627;28;20371;-96
2023/10/14 08:35:03;;;;;;;;;;;;;;;19.98;45.90;99555.75;5020537;28;19925;-96
2023/10/14 08:37:57;;;;;;;;;;;;;;;20.08;46.26;99554.59;5036602;28;19921;-96
2023/10/14 08:40:24;;;;;;;;;;;;;;;20.20;46.45;99556.63;5037764;28;19913;-96
2023/10/14 08:42:53;;;;;;;;;;;;;;;20.33;45.68;99552.88;5021229;28;19920;-94
2023/10/14 08:45:21;;;;;;;;;;;;;;;20.41;44.45;99550.44;5018662;28;20379;-95
2023/10/14 08:48:22;;;;;;;;;;;;;;;;;;;;;
2023/10/14 08:50:52;;;;;;;;;;;;;;;20.68;42.77;99533.56;5031040;28;19984;-95
2023/10/14 08:53:29;;;;;;;;;;;;;;;20.84;42.64;99541.19;5024701;28;19913;-96
2023/10/14 08:56:00;;;;;;;;;;;;;;;20.96;41.31;99528.38;5043240;28;19928;-95
2023/10/14 08:58:40;;;;;;;;;;;;;;;;;;;;;
2023/10/14 09:01:25;;;;;;;;;;;;;;;;;;;;;
2023/10/14 09:03:56;;;;;;;;;;;;;;;21.42;39.59;99524.94;5042785;28;19972;-95
2023/10/14 09:06:34;;;;;;;;;;;;;;;;;;;;;
2023/10/14 09:09:23;;;;;;;;;;;;;;;21.67;40.04;99517.59;5039718;28;20003;-96
2023/10/14 09:12:08;;;;;;;;;;;;;;;21.78;40.46;99518.75;5039987;28;19956;-93
2023/10/14 09:21:07;;;;;;;;;;;;;;;22.10;38.40;99508.03;4984382;28;20025;-95
2023/10/14 09:26:39;;;;;;;;;;;;;;;22.33;38.48;99502.91;5021956;28;19917;-94
2023/10/14 09:29:04;;;;;;;;;;;;;;;22.43;38.10;99496.97;5021162;28;19913;-94
2023/10/14 09:31:30;;;;;;;;;;;;;;;22.51;37.85;99489.75;5038837;28;19959;-95
2023/10/14 09:33:55;;;;;;;;;;;;;;;22.63;37.98;99486.22;5039936;28;19943;-95
2023/10/14 09:36:22;;;;;;;;;;;;;;;22.72;37.16;99484.09;5019766;28;19925;-93
2023/10/14 09:38:51;;;;;;;;;;;;;;;22.80;36.57;99475.72;5038987;28;20003;-94
2023/10/14 09:41:17;;;;;;;;;;;;;;;22.91;36.76;99467.00;5025762;28;19920;-95
2023/10/14 09:43:51;;;;;;;;;;;;;;;23.00;36.69;99462.19;5046117;28;19913;-96
2023/10/14 09:46:19;;;;;;;;;;;;;;;23.08;36.38;99461.25;5028369;28;19993;-96
2023/10/14 09:48:51;;;;;;;;;;;;;;;23.14;36.18;99454.38;5025833;28;19936;-95
2023/10/14 09:51:22;;;;;;;;;;;;;;;23.18;35.70;99452.50;5026620;28;19973;-96
2023/10/14 09:53:48;;;;;;;;;;;;;;;23.23;35.72;99447.91;5048318;28;19917;-95
2023/10/14 09:56:30;;;;;;;;;;;;;;;23.30;35.55;99439.84;5030009;28;19932;-96
2023/10/14 10:02:10;;;;;;;;;;;;;;;23.50;35.32;99433.31;5045773;28;19913;-96
2023/10/14 10:04:54;;;;;;;;;;;;;;;23.56;35.71;99426.41;5029766;28;19921;-95
2023/10/14 10:10:46;;;;;;;;;;;;;;;23.69;35.46;99413.38;5049697;28;19963;-96
2023/10/14 10:13:28;;;;;;;;;;;;;;;23.75;34.92;99411.16;5046675;28;19919;-96
2023/10/14 10:16:01;;;;;;;;;;;;;;;23.79;34.50;99407.34;5027136;28;19921;-96
2023/10/14 10:18:50;;;;;;;;;;;;;;;23.85;33.82;99399.63;5041547;28;20012;-96
2023/10/14 10:21:18;;;;;;;;;;;;;;;23.88;34.53;99393.41;5042586;28;19966;-95
2023/10/14 10:24:19;;;;;;;;;;;;;;;23.94;33.72;99380.19;5026627;28;19913;-95
2023/10/14 10:29:52;;;;;;;;;;;;;;;24.15;31.89;99386.16;5042924;28;19917;-95
2023/10/14 10:32:21;;;;;;;;;;;;;;;24.19;31.32;99380.75;5043986;28;19920;-96
2023/10/14 10:35:16;;;;;;;;;;;;;;;24.20;30.82;99377.63;5020592;28;20017;-95
2023/10/14 10:37:41;;;;;;;;;;;;;;;24.22;31.33;99374.53;5018374;28;19987;-96
2023/10/14 10:40:16;;;;;;;;;;;;;;;24.27;31.51;99370.69;5017564;28;19913;-96
2023/10/14 10:42:45;;;;;;;;;;;;;;;24.29;31.12;99371.13;5000513;28;19913;-96
2023/10/14 10:45:15;;;;;;;;;;;;;;;24.33;31.28;99358.25;4999588;28;19913;-95
2023/10/14 10:47:51;;;;;;;;;;;;;;;24.47;30.65;99349.50;5000387;28;19936;-96
2023/10/14 10:50:18;;;;;;;;;;;;;;;24.55;30.69;99346.53;5017437;28;19921;-95
2023/10/14 10:52:48;;;;;;;;;;;;;;;24.58;30.42;99345.03;4999951;28;19920;-95
2023/10/14 10:55:16;;;;;;;;;;;;;;;24.56;29.13;99337.13;4999362;28;19921;-94
2023/10/14 10:57:41;;;;;;;;;;;;;;;24.56;29.16;99331.59;4998669;28;19971;-95
2023/10/14 11:00:12;;;;;;;;;;;;;;;24.56;29.25;99331.59;5015419;28;20012;-96
2023/10/14 11:02:39;;;;;;;;;;;;;;;24.56;30.09;99326.09;5000342;28;19925;-96
2023/10/14 11:05:04;;;;;;;;;;;;;;;24.59;29.92;99327.31;5000802;28;20052;-95
2023/10/14 11:07:32;;;;;;;;;;;;;;;24.56;29.58;99317.84;5019945;28;19967;-96
2023/10/14 11:10:00;;;;;;;;;;;;;;;24.60;29.71;99324.22;5020261;28;19948;-94
2023/10/14 11:12:46;;;;;;;;;;;;;;;24.64;29.06;99305.03;5021136;28;19913;-96
2023/10/14 11:15:33;;;;;;;;;;;;;;;;;;;;;
2023/10/14 11:18:09;;;;;;;;;;;;;;;24.68;29.75;99307.84;5020566;28;20035;-96
2023/10/14 11:20:36;;;;;;;;;;;;;;;24.68;29.24;99299.59;5008438;28;19956;-95
2023/10/14 11:23:03;;;;;;;;;;;;;;;24.74;29.47;99293.41;5023044;28;19924;-93
2023/10/14 11:28:11;;;;;;;;;;;;;;;24.78;29.81;99286.00;5020676;28;19925;-96
2023/10/14 11:30:57;;;;;;;;;;;;;;;24.78;28.80;99280.50;4986573;28;19918;-96
2023/10/14 11:33:24;;;;;;;;;;;;;;;24.79;29.20;99278.53;4986199;28;19948;-95
2023/10/14 11:35:55;;;;;;;;;;;;;;;24.82;29.07;99266.81;4985485;28;19922;-95
2023/10/14 11:38:37;;;;;;;;;;;;;;;24.83;29.09;99275.84;4984293;28;19914;-95
2023/10/14 11:41:02;;;;;;;;;;;;;;;24.83;29.03;99262.09;4986068;28;20360;-96
2023/10/14 11:43:31;;;;;;;;;;;;;;;24.86;29.89;99261.34;4983263;28;19913;-93
2023/10/14 11:45:56;;;;;;;;;;;;;;;24.88;29.73;99256.25;4983240;28;20272;-95
2023/10/14 11:48:25;;;;;;;;;;;;;;;24.91;30.45;99250.03;4984224;28;20075;-95
2023/10/14 11:50:54;;;;;;;;;;;;;;;25.00;29.58;99239.53;4999873;28;19948;-95
2023/10/14 11:53:31;;;;;;;;;;;;;;;24.98;30.10;99244.63;4984520;28;19913;-95
2023/10/14 11:55:58;;;;;;;;;;;;;;;25.09;29.91;99239.28;4983827;28;19917;-95
2023/10/14 11:58:27;;;;;;;;;;;;;;;25.15;29.83;99235.88;4984976;28;19913;-95
2023/10/14 12:01:00;;;;;;;;;;;;;;;25.16;30.17;99234.69;4982705;28;20295;-94
2023/10/14 12:03:25;;;;;;;;;;;;;;;25.16;29.29;99226.41;4997031;28;19921;-90
2023/10/14 12:05:57;;;;;;;;;;;;;;;25.15;29.36;99222.09;4992222;28;20392;-91
2023/10/14 12:08:25;;;;;;;;;;;;;;;25.20;29.71;99226.47;4994316;28;19914;-95
2023/10/14 12:10:50;;;;;;;;;;;;;;;25.17;30.18;99216.19;4979944;28;19930;-95
2023/10/14 12:13:15;;;;;;;;;;;;;;;25.11;29.46;99218.47;4979771;28;19960;-95
2023/10/14 12:15:43;;;;;;;;;;;;;;;25.11;29.50;99218.47;4980324;28;19917;-94
2023/10/14 12:18:14;;;;;;;;;;;;;;;25.12;28.92;99216.50;4979632;28;19948;-94
2023/10/14 12:20:41;;;;;;;;;;;;;;;25.16;29.06;99215.41;4979844;28;19961;-95
2023/10/14 12:23:06;;;;;;;;;;;;;;;25.21;28.87;99225.34;4981537;28;19914;-93
2023/10/14 12:25:31;;;;;;;;;;;;;;;25.18;28.22;99218.56;4980890;28;19913;-95
2023/10/14 12:27:57;;;;;;;;;;;;;;;25.18;28.78;99206.75;4980005;28;19926;-95
2023/10/14 12:30:39;;;;;;;;;;;;;;;25.24;27.93;99204.53;4980380;28;19913;-95
2023/10/14 12:33:05;;;;;;;;;;;;;;;25.27;28.64;99199.03;4979708;28;20307;-96
2023/10/14 12:35:33;;;;;;;;;;;;;;;25.27;28.60;99192.75;4980120;28;19928;-96
2023/10/14 12:37:59;;;;;;;;;;;;;;;25.26;28.82;99185.66;4980512;28;20306;-95
2023/10/14 12:40:29;;;;;;;;;;;;;;;25.27;28.95;99184.47;4979583;28;19914;-96
2023/10/14 12:43:00;;;;;;;;;;;;;;;25.28;28.90;99186.88;4979711;28;19914;-94
2023/10/14 12:45:26;;;;;;;;;;;;;;;25.25;28.90;99179.31;4979974;28;19914;-95
2023/10/14 12:47:56;;;;;;;;;;;;;;;25.23;28.77;99176.16;4979881;28;19964;-94
2023/10/14 12:50:31;;;;;;;;;;;;;;;25.27;29.15;99174.25;4979995;28;19914;-96
2023/10/14 12:53:04;;;;;;;;;;;;;;;25.26;28.76;99169.13;4980935;28;20004;-96
2023/10/14 12:55:51;;;;;;;;;;;;;;;;;;;;;
2023/10/14 12:58:17;;;;;;;;;;;;;;;25.26;28.13;99163.59;5003279;28;20001;-96
2023/10/14 13:00:45;;;;;;;;;;;;;;;25.25;27.89;99153.75;5000626;28;19922;-96
2023/10/14 13:03:11;;;;;;;;;;;;;;;25.28;28.52;99156.56;4983104;28;19914;-94
2023/10/14 13:05:39;;;;;;;;;;;;;;;25.31;28.18;99152.25;4983026;28;20287;-95
2023/10/14 13:08:07;;;;;;;;;;;;;;;25.31;28.12;99155.78;4982644;28;19914;-94
2023/10/14 13:10:36;;;;;;;;;;;;;;;25.32;28.36;99153.84;4982803;28;20358;-96
2023/10/14 13:13:02;;;;;;;;;;;;;;;25.23;28.58;99145.84;5000976;28;20368;-96
2023/10/14 13:15:34;;;;;;;;;;;;;;;25.23;28.84;99145.06;4984242;28;20015;-96
2023/10/14 13:18:05;;;;;;;;;;;;;;;25.23;29.21;99145.06;5001819;28;19926;-96
2023/10/14 13:20:34;;;;;;;;;;;;;;;25.25;29.34;99143.50;4985030;28;20348;-93
2023/10/14 13:23:09;;;;;;;;;;;;;;;25.27;29.06;99130.16;4982300;28;19914;-95
2023/10/14 13:25:40;;;;;;;;;;;;;;;25.27;28.91;99134.88;4982306;28;19914;-96
2023/10/14 13:28:13;;;;;;;;;;;;;;;25.25;28.80;99131.69;4983222;28;19922;-96
2023/10/14 13:30:47;;;;;;;;;;;;;;;25.20;28.81;99124.53;4982489;28;20295;-96
2023/10/14 13:33:16;;;;;;;;;;;;;;;25.16;28.81;99124.47;4982694;28;19922;-95
2023/10/14 13:35:43;;;;;;;;;;;;;;;25.12;29.50;99125.59;4982774;28;19914;-96
2023/10/14 13:38:10;;;;;;;;;;;;;;;25.07;29.27;99126.72;4984723;28;19914;-95
2023/10/14 13:40:39;;;;;;;;;;;;;;;25.08;29.56;99120.00;4982689;28;19913;-95
2023/10/14 13:43:05;;;;;;;;;;;;;;;25.10;29.70;99112.19;4982184;28;19914;-95
2023/10/14 13:45:30;;;;;;;;;;;;;;;25.05;29.38;99120.78;4982279;28;19914;-95
2023/10/14 13:47:56;;;;;;;;;;;;;;;25.03;29.05;99120.34;4982348;28;19961;-92
2023/10/14 13:50:23;;;;;;;;;;;;;;;25.04;29.25;99110.91;4997775;28;19975;-94
2023/10/14 13:52:54;;;;;;;;;;;;;;;25.03;30.06;99114.84;4996914;28;20402;-93
2023/10/14 13:55:23;;;;;;;;;;;;;;;25.04;30.12;99115.63;4980590;28;19964;-92
2023/10/14 13:57:49;;;;;;;;;;;;;;;24.99;29.62;99114.78;4979648;28;19981;-91
2023/10/14 14:00:19;;;;;;;;;;;;;;;25.05;29.79;99108.94;4980281;28;19961;-91
2023/10/14 14:02:47;;;;;;;;;;;;;;;25.10;30.06;99101.16;4981546;28;19917;-90
2023/10/14 14:05:13;;;;;;;;;;;;;;;25.13;30.02;99100.41;4997998;28;19914;-93
2023/10/14 14:07:40;;;;;;;;;;;;;;;25.15;29.58;99106.34;4980307;28;20431;-93
2023/10/14 14:10:08;;;;;;;;;;;;;;;25.18;29.87;99089.06;4981571;28;19914;-96
2023/10/14 14:12:34;;;;;;;;;;;;;;;25.13;29.78;99086.66;4981553;28;19921;-96